Terminal Aerodrome Forecast
Issued by NWS Spokane, WA

Home | Current Version | Previous Version | Text Only | Print | Product List | Glossary On
Versions: 1 2 3 4 5 6 7 8 9 10 11 12 13 14 15 16 17 18 19 20 21 22
000
FTUS46 KOTX 242338
TAFGEG
TAF
KGEG 242338Z 2500/2524 22014G23KT P6SM VCTS BKN045CB BKN200
     FM250200 21012KT P6SM SCT045 BKN200
     FM251200 17007KT P6SM FEW060 BKN100
     FM251700 19005KT P6SM BKN060 OVC100
     FM252200 21006KT P6SM VCSH SCT035 OVC060=

USA.gov is the U.S. government's official web portal to all federal, state and local government web resources and services.